sensor_id;sensor_type;location;lat;lon;timestamp;pressure;altitude;pressure_sealevel;temperature;humidity
64141;BME280;50436;50.618;7.932;2022-07-12T00:01:49;97395.50;;;13.06;100.00
64141;BME280;50436;50.618;7.932;2022-07-12T00:04:14;97388.59;;;13.10;100.00
64141;BME280;50436;50.618;7.932;2022-07-12T00:06:40;97390.91;;;13.19;100.00
64141;BME280;50436;50.618;7.932;2022-07-12T00:09:06;97384.72;;;13.18;100.00
64141;BME280;50436;50.618;7.932;2022-07-12T00:11:32;97391.97;;;13.18;100.00
64141;BME280;50436;50.618;7.932;2022-07-12T00:13:58;97389.53;;;13.16;100.00
64141;BME280;50436;50.618;7.932;2022-07-12T00:16:24;97392.78;;;13.18;100.00
64141;BME280;50436;50.618;7.932;2022-07-12T00:18:49;97387.41;;;13.18;100.00
64141;BME280;50436;50.618;7.932;2022-07-12T00:21:15;97395.25;;;13.20;100.00
64141;BME280;50436;50.618;7.932;2022-07-12T00:23:40;97392.41;;;13.15;100.00
64141;BME280;50436;50.618;7.932;2022-07-12T00:26:06;97386.56;;;13.01;100.00
64141;BME280;50436;50.618;7.932;2022-07-12T00:28:31;97391.06;;;12.83;100.00
64141;BME280;50436;50.618;7.932;2022-07-12T00:30:58;97381.72;;;12.86;100.00
64141;BME280;50436;50.618;7.932;2022-07-12T00:33:24;97388.97;;;12.86;100.00
64141;BME280;50436;50.618;7.932;2022-07-12T00:35:49;97373.66;;;12.86;100.00
64141;BME280;50436;50.618;7.932;2022-07-12T00:38:15;97382.44;;;12.81;100.00
64141;BME280;50436;50.618;7.932;2022-07-12T00:40:40;97370.31;;;12.79;100.00
64141;BME280;50436;50.618;7.932;2022-07-12T00:43:07;97373.00;;;12.79;100.00
64141;BME280;50436;50.618;7.932;2022-07-12T00:45:32;97378.34;;;12.79;100.00
64141;BME280;50436;50.618;7.932;2022-07-12T00:47:58;97377.78;;;12.77;100.00
64141;BME280;50436;50.618;7.932;2022-07-12T00:50:24;97373.44;;;12.76;100.00
64141;BME280;50436;50.618;7.932;2022-07-12T00:52:52;97369.38;;;12.73;100.00
64141;BME280;50436;50.618;7.932;2022-07-12T00:55:19;97364.50;;;12.70;100.00
64141;BME280;50436;50.618;7.932;2022-07-12T00:57:46;97366.94;;;12.72;100.00
64141;BME280;50436;50.618;7.932;2022-07-12T01:00:18;97349.78;;;12.73;100.00
64141;BME280;50436;50.618;7.932;2022-07-12T01:02:44;97354.22;;;12.67;100.00
64141;BME280;50436;50.618;7.932;2022-07-12T01:05:09;97362.28;;;12.67;100.00
64141;BME280;50436;50.618;7.932;2022-07-12T01:07:35;97348.63;;;12.69;100.00
64141;BME280;50436;50.618;7.932;2022-07-12T01:10:04;97359.84;;;12.66;100.00
64141;BME280;50436;50.618;7.932;2022-07-12T01:12:30;97360.34;;;12.63;100.00
64141;BME280;50436;50.618;7.932;2022-07-12T01:14:56;97358.47;;;12.63;100.00
64141;BME280;50436;50.618;7.932;2022-07-12T01:17:24;97361.97;;;12.64;100.00
64141;BME280;50436;50.618;7.932;2022-07-12T01:19:51;97358.34;;;12.58;100.00
64141;BME280;50436;50.618;7.932;2022-07-12T01:22:18;97362.59;;;12.54;100.00
64141;BME280;50436;50.618;7.932;2022-07-12T01:24:44;97364.47;;;12.53;100.00
64141;BME280;50436;50.618;7.932;2022-07-12T01:27:11;97361.66;;;12.48;100.00
64141;BME280;50436;50.618;7.932;2022-07-12T01:29:37;97362.06;;;12.28;100.00
64141;BME280;50436;50.618;7.932;2022-07-12T01:32:04;97368.28;;;12.06;100.00
64141;BME280;50436;50.618;7.932;2022-07-12T01:34:56;97367.13;;;12.02;100.00
64141;BME280;50436;50.618;7.932;2022-07-12T01:37:23;97357.53;;;12.06;100.00
64141;BME280;50436;50.618;7.932;2022-07-12T01:39:54;97362.25;;;11.98;100.00
64141;BME280;50436;50.618;7.932;2022-07-12T01:42:20;97361.75;;;11.90;100.00
64141;BME280;50436;50.618;7.932;2022-07-12T01:44:48;97359.91;;;11.90;100.00
64141;BME280;50436;50.618;7.932;2022-07-12T01:47:14;97354.41;;;11.97;100.00
64141;BME280;50436;50.618;7.932;2022-07-12T01:49:39;97354.41;;;11.97;100.00
64141;BME280;50436;50.618;7.932;2022-07-12T01:52:05;97346.59;;;11.95;100.00
64141;BME280;50436;50.618;7.932;2022-07-12T01:54:31;97348.84;;;11.98;100.00
64141;BME280;50436;50.618;7.932;2022-07-12T01:56:58;97337.50;;;11.96;100.00
64141;BME280;50436;50.618;7.932;2022-07-12T01:59:23;97345.22;;;11.93;100.00
64141;BME280;50436;50.618;7.932;2022-07-12T02:01:49;97347.91;;;11.93;100.00
64141;BME280;50436;50.618;7.932;2022-07-12T02:04:20;97345.22;;;11.93;100.00
64141;BME280;50436;50.618;7.932;2022-07-12T02:06:46;97351.63;;;11.92;100.00
64141;BME280;50436;50.618;7.932;2022-07-12T02:09:12;97345.22;;;11.81;100.00
64141;BME280;50436;50.618;7.932;2022-07-12T02:11:38;97352.81;;;11.84;100.00
64141;BME280;50436;50.618;7.932;2022-07-12T02:14:06;97354.69;;;11.84;100.00
64141;BME280;50436;50.618;7.932;2022-07-12T02:16:32;97363.75;;;11.83;100.00
64141;BME280;50436;50.618;7.932;2022-07-12T02:19:01;97357.22;;;11.79;100.00
64141;BME280;50436;50.618;7.932;2022-07-12T02:21:26;97349.97;;;11.79;100.00
64141;BME280;50436;50.618;7.932;2022-07-12T02:23:52;97355.13;;;11.81;100.00
64141;BME280;50436;50.618;7.932;2022-07-12T02:26:18;97351.97;;;11.72;100.00
64141;BME280;50436;50.618;7.932;2022-07-12T02:28:43;97355.00;;;11.64;100.00
64141;BME280;50436;50.618;7.932;2022-07-12T02:31:09;97344.28;;;11.64;100.00
64141;BME280;50436;50.618;7.932;2022-07-12T02:33:35;97349.16;;;11.67;100.00
64141;BME280;50436;50.618;7.932;2022-07-12T02:36:01;97351.03;;;11.66;100.00
64141;BME280;50436;50.618;7.932;2022-07-12T02:38:27;97362.56;;;11.55;100.00
64141;BME280;50436;50.618;7.932;2022-07-12T02:40:53;97356.97;;;11.57;100.00
64141;BME280;50436;50.618;7.932;2022-07-12T02:43:22;97364.78;;;11.58;100.00
64141;BME280;50436;50.618;7.932;2022-07-12T02:45:48;97354.19;;;11.63;100.00
64141;BME280;50436;50.618;7.932;2022-07-12T02:48:15;97354.75;;;11.65;100.00
64141;BME280;50436;50.618;7.932;2022-07-12T02:50:41;97365.47;;;11.65;100.00
64141;BME280;50436;50.618;7.932;2022-07-12T02:53:09;97360.34;;;11.64;100.00
64141;BME280;50436;50.618;7.932;2022-07-12T02:55:36;97368.06;;;11.60;100.00
64141;BME280;50436;50.618;7.932;2022-07-12T02:58:02;97368.16;;;11.54;100.00
64141;BME280;50436;50.618;7.932;2022-07-12T03:00:28;97368.28;;;11.47;100.00
64141;BME280;50436;50.618;7.932;2022-07-12T03:02:54;97366.50;;;11.41;100.00
64141;BME280;50436;50.618;7.932;2022-07-12T03:05:20;97380.63;;;11.36;100.00
64141;BME280;50436;50.618;7.932;2022-07-12T03:07:45;97376.53;;;11.34;100.00
64141;BME280;50436;50.618;7.932;2022-07-12T03:10:11;97380.63;;;11.36;100.00
64141;BME280;50436;50.618;7.932;2022-07-12T03:12:37;97379.78;;;11.36;100.00
64141;BME280;50436;50.618;7.932;2022-07-12T03:15:04;97389.25;;;11.38;100.00
64141;BME280;50436;50.618;7.932;2022-07-12T03:17:29;97383.06;;;11.38;100.00
64141;BME280;50436;50.618;7.932;2022-07-12T03:19:55;97383.41;;;11.41;100.00
64141;BME280;50436;50.618;7.932;2022-07-12T03:22:20;97385.66;;;11.44;100.00
64141;BME280;50436;50.618;7.932;2022-07-12T03:24:46;97385.28;;;11.41;100.00
64141;BME280;50436;50.618;7.932;2022-07-12T03:27:11;97382.16;;;11.44;100.00
64141;BME280;50436;50.618;7.932;2022-07-12T03:29:37;97379.00;;;11.47;100.00
64141;BME280;50436;50.618;7.932;2022-07-12T03:32:03;97375.59;;;11.40;100.00
64141;BME280;50436;50.618;7.932;2022-07-12T03:34:28;97368.16;;;11.30;100.00
64141;BME280;50436;50.618;7.932;2022-07-12T03:36:54;97383.03;;;11.26;100.00
64141;BME280;50436;50.618;7.932;2022-07-12T03:39:19;97386.63;;;11.20;100.00
64141;BME280;50436;50.618;7.932;2022-07-12T03:41:45;97388.97;;;11.28;100.00
64141;BME280;50436;50.618;7.932;2022-07-12T03:44:10;97392.03;;;11.32;100.00
64141;BME280;50436;50.618;7.932;2022-07-12T03:46:36;97391.34;;;11.36;100.00
64141;BME280;50436;50.618;7.932;2022-07-12T03:49:01;97388.78;;;11.41;100.00
64141;BME280;50436;50.618;7.932;2022-07-12T03:51:27;97388.19;;;11.39;100.00
64141;BME280;50436;50.618;7.932;2022-07-12T03:53:53;97394.13;;;11.41;100.00
64141;BME280;50436;50.618;7.932;2022-07-12T03:56:18;97396.00;;;11.41;100.00
64141;BME280;50436;50.618;7.932;2022-07-12T03:59:03;97390.19;;;11.44;100.00
64141;BME280;50436;50.618;7.932;2022-07-12T04:01:31;97398.69;;;11.41;100.00
64141;BME280;50436;50.618;7.932;2022-07-12T04:03:56;97397.88;;;11.40;100.00
64141;BME280;50436;50.618;7.932;2022-07-12T04:06:22;97401.94;;;11.43;100.00
64141;BME280;50436;50.618;7.932;2022-07-12T04:08:47;97385.03;;;11.42;100.00
64141;BME280;50436;50.618;7.932;2022-07-12T04:11:13;97398.81;;;11.46;100.00
64141;BME280;50436;50.618;7.932;2022-07-12T04:13:39;97400.78;;;11.51;100.00
64141;BME280;50436;50.618;7.932;2022-07-12T04:16:04;97406.28;;;11.56;100.00
64141;BME280;50436;50.618;7.932;2022-07-12T04:18:31;97404.16;;;11.58;100.00
64141;BME280;50436;50.618;7.932;2022-07-12T04:20:59;97407.22;;;11.61;100.00
64141;BME280;50436;50.618;7.932;2022-07-12T04:23:24;97402.19;;;11.65;100.00
64141;BME280;50436;50.618;7.932;2022-07-12T04:25:51;97397.41;;;11.67;100.00
64141;BME280;50436;50.618;7.932;2022-07-12T04:28:16;97399.50;;;11.65;100.00
64141;BME280;50436;50.618;7.932;2022-07-12T04:30:42;97408.63;;;11.64;100.00
64141;BME280;50436;50.618;7.932;2022-07-12T04:33:14;97402.56;;;11.68;100.00
64141;BME280;50436;50.618;7.932;2022-07-12T04:35:40;97409.22;;;11.78;100.00
64141;BME280;50436;50.618;7.932;2022-07-12T04:38:07;97411.00;;;11.84;100.00
64141;BME280;50436;50.618;7.932;2022-07-12T04:40:32;97422.19;;;11.92;100.00
64141;BME280;50436;50.618;7.932;2022-07-12T04:42:58;97424.50;;;12.01;100.00
64141;BME280;50436;50.618;7.932;2022-07-12T04:45:23;97416.94;;;12.09;100.00
64141;BME280;50436;50.618;7.932;2022-07-12T04:47:49;97421.94;;;12.17;100.00
64141;BME280;50436;50.618;7.932;2022-07-12T04:50:14;97416.44;;;12.24;100.00
64141;BME280;50436;50.618;7.932;2022-07-12T04:52:40;97427.38;;;12.34;100.00
64141;BME280;50436;50.618;7.932;2022-07-12T04:55:06;97427.03;;;12.42;100.00
64141;BME280;50436;50.618;7.932;2022-07-12T04:57:32;97435.75;;;12.49;100.00
64141;BME280;50436;50.618;7.932;2022-07-12T04:59:58;97426.78;;;12.55;100.00
64141;BME280;50436;50.618;7.932;2022-07-12T05:02:23;97427.47;;;12.63;100.00
64141;BME280;50436;50.618;7.932;2022-07-12T05:04:49;97433.03;;;12.73;100.00
64141;BME280;50436;50.618;7.932;2022-07-12T05:07:14;97426.22;;;12.82;100.00
64141;BME280;50436;50.618;7.932;2022-07-12T05:09:40;97425.94;;;12.95;100.00
64141;BME280;50436;50.618;7.932;2022-07-12T05:12:05;97421.00;;;13.04;100.00
64141;BME280;50436;50.618;7.932;2022-07-12T05:14:31;97428.66;;;13.12;100.00
64141;BME280;50436;50.618;7.932;2022-07-12T05:16:57;97422.13;;;13.20;100.00
64141;BME280;50436;50.618;7.932;2022-07-12T05:19:22;97432.81;;;13.31;100.00
64141;BME280;50436;50.618;7.932;2022-07-12T05:21:49;97433.25;;;13.40;100.00
64141;BME280;50436;50.618;7.932;2022-07-12T05:24:14;97423.47;;;13.51;100.00
64141;BME280;50436;50.618;7.932;2022-07-12T05:26:40;97430.66;;;13.62;100.00
64141;BME280;50436;50.618;7.932;2022-07-12T05:29:06;97428.94;;;13.73;100.00
64141;BME280;50436;50.618;7.932;2022-07-12T05:31:32;97428.28;;;13.82;100.00
64141;BME280;50436;50.618;7.932;2022-07-12T05:33:57;97431.09;;;13.92;100.00
64141;BME280;50436;50.618;7.932;2022-07-12T05:36:23;97437.47;;;14.03;100.00
64141;BME280;50436;50.618;7.932;2022-07-12T05:38:49;97440.88;;;14.15;100.00
64141;BME280;50436;50.618;7.932;2022-07-12T05:41:14;97442.09;;;14.25;100.00
64141;BME280;50436;50.618;7.932;2022-07-12T05:43:40;97440.34;;;14.35;100.00
64141;BME280;50436;50.618;7.932;2022-07-12T05:46:06;97441.91;;;14.48;100.00
64141;BME280;50436;50.618;7.932;2022-07-12T05:48:31;97449.59;;;14.61;100.00
64141;BME280;50436;50.618;7.932;2022-07-12T05:50:57;97454.63;;;14.74;100.00
64141;BME280;50436;50.618;7.932;2022-07-12T05:53:43;97455.81;;;14.84;100.00
64141;BME280;50436;50.618;7.932;2022-07-12T05:56:08;97444.09;;;14.95;100.00
64141;BME280;50436;50.618;7.932;2022-07-12T05:58:33;97443.66;;;15.03;100.00
64141;BME280;50436;50.618;7.932;2022-07-12T06:00:59;97456.59;;;15.06;100.00
64141;BME280;50436;50.618;7.932;2022-07-12T06:03:24;97462.56;;;15.08;100.00
64141;BME280;50436;50.618;7.932;2022-07-12T06:05:50;97466.13;;;15.14;100.00
64141;BME280;50436;50.618;7.932;2022-07-12T06:08:15;97467.00;;;15.19;100.00
64141;BME280;50436;50.618;7.932;2022-07-12T06:10:41;97472.19;;;15.26;100.00
64141;BME280;50436;50.618;7.932;2022-07-12T06:13:06;97474.66;;;15.32;100.00
64141;BME280;50436;50.618;7.932;2022-07-12T06:15:32;97471.22;;;15.37;100.00
64141;BME280;50436;50.618;7.932;2022-07-12T06:17:58;97480.75;;;15.45;100.00
64141;BME280;50436;50.618;7.932;2022-07-12T06:20:23;97478.09;;;15.50;100.00
64141;BME280;50436;50.618;7.932;2022-07-12T06:22:49;97474.63;;;15.54;100.00
64141;BME280;50436;50.618;7.932;2022-07-12T06:25:14;97466.59;;;15.59;100.00
64141;BME280;50436;50.618;7.932;2022-07-12T06:27:40;97469.59;;;15.63;100.00
64141;BME280;50436;50.618;7.932;2022-07-12T06:30:06;97468.03;;;15.67;100.00
64141;BME280;50436;50.618;7.932;2022-07-12T06:32:31;97467.03;;;15.73;100.00
64141;BME280;50436;50.618;7.932;2022-07-12T06:34:58;97463.03;;;15.81;100.00
64141;BME280;50436;50.618;7.932;2022-07-12T06:37:23;97467.16;;;15.88;100.00
64141;BME280;50436;50.618;7.932;2022-07-12T06:39:49;97463.41;;;15.95;100.00
64141;BME280;50436;50.618;7.932;2022-07-12T06:42:14;97465.31;;;15.99;100.00
64141;BME280;50436;50.618;7.932;2022-07-12T06:44:51;97469.44;;;16.07;100.00
64141;BME280;50436;50.618;7.932;2022-07-12T06:47:16;97462.19;;;16.12;100.00
64141;BME280;50436;50.618;7.932;2022-07-12T06:49:42;97455.19;;;16.16;100.00
64141;BME280;50436;50.618;7.932;2022-07-12T06:52:07;97454.41;;;16.21;100.00
64141;BME280;50436;50.618;7.932;2022-07-12T06:54:35;97457.72;;;16.28;100.00
64141;BME280;50436;50.618;7.932;2022-07-12T06:57:01;97452.59;;;16.32;100.00
64141;BME280;50436;50.618;7.932;2022-07-12T06:59:26;97459.38;;;16.39;100.00
64141;BME280;50436;50.618;7.932;2022-07-12T07:01:52;97458.88;;;16.42;100.00
64141;BME280;50436;50.618;7.932;2022-07-12T07:04:17;97467.53;;;16.50;100.00
64141;BME280;50436;50.618;7.932;2022-07-12T07:06:43;97460.00;;;16.57;100.00
64141;BME280;50436;50.618;7.932;2022-07-12T07:09:08;97455.19;;;16.64;100.00
64141;BME280;50436;50.618;7.932;2022-07-12T07:11:35;97460.13;;;16.72;100.00
64141;BME280;50436;50.618;7.932;2022-07-12T07:14:02;97459.06;;;16.78;100.00
64141;BME280;50436;50.618;7.932;2022-07-12T07:16:28;97459.91;;;16.84;100.00
64141;BME280;50436;50.618;7.932;2022-07-12T07:18:53;97463.47;;;16.89;100.00
64141;BME280;50436;50.618;7.932;2022-07-12T07:21:19;97463.47;;;16.94;100.00
64141;BME280;50436;50.618;7.932;2022-07-12T07:23:44;97464.31;;;17.05;100.00
64141;BME280;50436;50.618;7.932;2022-07-12T07:26:10;97471.91;;;17.18;100.00
64141;BME280;50436;50.618;7.932;2022-07-12T07:28:35;97461.16;;;17.34;100.00
64141;BME280;50436;50.618;7.932;2022-07-12T07:31:21;97454.97;;;17.43;100.00
64141;BME280;50436;50.618;7.932;2022-07-12T07:33:46;97461.72;;;17.56;100.00
64141;BME280;50436;50.618;7.932;2022-07-12T07:36:12;97450.66;;;17.68;100.00
64141;BME280;50436;50.618;7.932;2022-07-12T07:38:37;97453.13;;;17.74;100.00
64141;BME280;50436;50.618;7.932;2022-07-12T07:41:03;97460.16;;;17.86;100.00
64141;BME280;50436;50.618;7.932;2022-07-12T07:43:29;97456.66;;;17.90;100.00
64141;BME280;50436;50.618;7.932;2022-07-12T07:45:54;97453.38;;;18.14;100.00
64141;BME280;50436;50.618;7.932;2022-07-12T07:48:20;97461.19;;;18.46;100.00
64141;BME280;50436;50.618;7.932;2022-07-12T07:50:45;97474.41;;;18.73;100.00
64141;BME280;50436;50.618;7.932;2022-07-12T07:53:11;97468.13;;;18.87;100.00
64141;BME280;50436;50.618;7.932;2022-07-12T07:55:36;97472.75;;;18.82;100.00
64141;BME280;50436;50.618;7.932;2022-07-12T07:58:02;97473.25;;;18.89;100.00
64141;BME280;50436;50.618;7.932;2022-07-12T08:00:30;97467.31;;;18.92;100.00
64141;BME280;50436;50.618;7.932;2022-07-12T08:02:55;97469.44;;;19.00;100.00
64141;BME280;50436;50.618;7.932;2022-07-12T08:05:21;97468.88;;;19.03;100.00
64141;BME280;50436;50.618;7.932;2022-07-12T08:07:46;97471.34;;;19.00;100.00
64141;BME280;50436;50.618;7.932;2022-07-12T08:10:12;97469.69;;;18.99;100.00
64141;BME280;50436;50.618;7.932;2022-07-12T08:12:37;97474.59;;;18.97;100.00
64141;BME280;50436;50.618;7.932;2022-07-12T08:15:03;97475.38;;;19.07;100.00
64141;BME280;50436;50.618;7.932;2022-07-12T08:17:29;97468.28;;;19.11;100.00
64141;BME280;50436;50.618;7.932;2022-07-12T08:19:55;97467.19;;;19.12;100.00
64141;BME280;50436;50.618;7.932;2022-07-12T08:22:20;97471.53;;;19.13;100.00
64141;BME280;50436;50.618;7.932;2022-07-12T08:24:46;97464.72;;;19.21;100.00
64141;BME280;50436;50.618;7.932;2022-07-12T08:27:11;97464.97;;;19.25;100.00
64141;BME280;50436;50.618;7.932;2022-07-12T08:29:38;97459.25;;;19.26;100.00
64141;BME280;50436;50.618;7.932;2022-07-12T08:32:03;97457.44;;;19.11;100.00
64141;BME280;50436;50.618;7.932;2022-07-12T08:34:29;97463.97;;;19.10;100.00
64141;BME280;50436;50.618;7.932;2022-07-12T08:36:55;97448.72;;;19.19;100.00
64141;BME280;50436;50.618;7.932;2022-07-12T08:39:20;97461.16;;;19.31;100.00
64141;BME280;50436;50.618;7.932;2022-07-12T08:41:46;97457.84;;;19.39;100.00
64141;BME280;50436;50.618;7.932;2022-07-12T08:44:11;97455.56;;;19.56;100.00
64141;BME280;50436;50.618;7.932;2022-07-12T08:46:37;97453.31;;;19.68;100.00
64141;BME280;50436;50.618;7.932;2022-07-12T08:49:06;97443.84;;;19.66;100.00
64141;BME280;50436;50.618;7.932;2022-07-12T08:51:32;97443.06;;;19.60;100.00
64141;BME280;50436;50.618;7.932;2022-07-12T08:54:08;97441.47;;;19.54;100.00
64141;BME280;50436;50.618;7.932;2022-07-12T08:56:38;97458.78;;;19.63;100.00
64141;BME280;50436;50.618;7.932;2022-07-12T08:59:11;97473.38;;;19.72;100.00
64141;BME280;50436;50.618;7.932;2022-07-12T09:01:44;97453.31;;;19.68;100.00
64141;BME280;50436;50.618;7.932;2022-07-12T09:06:45;97451.66;;;19.72;100.00
64141;BME280;50436;50.618;7.932;2022-07-12T09:09:11;97454.88;;;19.80;100.00
64141;BME280;50436;50.618;7.932;2022-07-12T09:11:39;97454.22;;;19.93;100.00
64141;BME280;50436;50.618;7.932;2022-07-12T09:14:04;97454.13;;;20.03;100.00
64141;BME280;50436;50.618;7.932;2022-07-12T09:16:30;97451.84;;;20.15;100.00
64141;BME280;50436;50.618;7.932;2022-07-12T09:19:16;97447.59;;;20.04;100.00
64141;BME280;50436;50.618;7.932;2022-07-12T09:21:48;97456.47;;;20.15;100.00
64141;BME280;50436;50.618;7.932;2022-07-12T09:24:15;97461.72;;;20.35;100.00
64141;BME280;50436;50.618;7.932;2022-07-12T09:26:40;97456.19;;;20.45;100.00
64141;BME280;50436;50.618;7.932;2022-07-12T09:29:07;97459.31;;;20.63;100.00
64141;BME280;50436;50.618;7.932;2022-07-12T09:34:26;97456.03;;;20.84;100.00
64141;BME280;50436;50.618;7.932;2022-07-12T09:37:10;97445.69;;;20.86;100.00
64141;BME280;50436;50.618;7.932;2022-07-12T09:39:36;97447.81;;;20.90;100.00
64141;BME280;50436;50.618;7.932;2022-07-12T09:42:04;97453.78;;;20.92;100.00
64141;BME280;50436;50.618;7.932;2022-07-12T09:44:31;97455.31;;;20.79;100.00
64141;BME280;50436;50.618;7.932;2022-07-12T09:46:58;97459.16;;;20.97;100.00
64141;BME280;50436;50.618;7.932;2022-07-12T09:49:25;97458.97;;;21.12;100.00
64141;BME280;50436;50.618;7.932;2022-07-12T09:51:54;97456.25;;;21.12;100.00
64141;BME280;50436;50.618;7.932;2022-07-12T09:54:26;97455.13;;;21.13;100.00
64141;BME280;50436;50.618;7.932;2022-07-12T09:56:53;97450.50;;;21.13;100.00
64141;BME280;50436;50.618;7.932;2022-07-12T09:59:23;97451.38;;;21.33;100.00
64141;BME280;50436;50.618;7.932;2022-07-12T10:01:50;97453.50;;;21.36;100.00
64141;BME280;50436;50.618;7.932;2022-07-12T10:04:20;97452.69;;;21.54;100.00
64141;BME280;50436;50.618;7.932;2022-07-12T10:06:50;97448.72;;;21.65;100.00
64141;BME280;50436;50.618;7.932;2022-07-12T10:09:16;97449.28;;;21.81;100.00
64141;BME280;50436;50.618;7.932;2022-07-12T10:11:41;97459.94;;;21.96;99.18
64141;BME280;50436;50.618;7.932;2022-07-12T10:14:11;97456.22;;;22.06;100.00
64141;BME280;50436;50.618;7.932;2022-07-12T10:16:38;97455.31;;;21.97;96.13
64141;BME280;50436;50.618;7.932;2022-07-12T10:19:22;97464.06;;;22.13;97.23
64141;BME280;50436;50.618;7.932;2022-07-12T10:21:54;97461.66;;;22.25;96.05
64141;BME280;50436;50.618;7.932;2022-07-12T10:29:48;97458.09;;;22.71;96.26
64141;BME280;50436;50.618;7.932;2022-07-12T10:34:59;97461.88;;;22.89;93.68
64141;BME280;50436;50.618;7.932;2022-07-12T10:37:25;97456.78;;;22.82;94.34
64141;BME280;50436;50.618;7.932;2022-07-12T10:40:21;97441.94;;;23.16;100.00
64141;BME280;50436;50.618;7.932;2022-07-12T10:43:13;97454.19;;;23.54;92.24
64141;BME280;50436;50.618;7.932;2022-07-12T10:45:43;97452.84;;;23.66;89.49
64141;BME280;50436;50.618;7.932;2022-07-12T10:48:19;97445.28;;;23.85;85.82
64141;BME280;50436;50.618;7.932;2022-07-12T10:53:24;97442.53;;;24.30;82.96
64141;BME280;50436;50.618;7.932;2022-07-12T10:56:10;97447.34;;;24.55;86.08
64141;BME280;50436;50.618;7.932;2022-07-12T10:58:48;97440.97;;;24.68;85.03
64141;BME280;50436;50.618;7.932;2022-07-12T11:01:19;97437.72;;;24.66;78.31
64141;BME280;50436;50.618;7.932;2022-07-12T11:03:53;97437.75;;;25.06;81.03
64141;BME280;50436;50.618;7.932;2022-07-12T11:06:21;97439.88;;;25.35;74.61
64141;BME280;50436;50.618;7.932;2022-07-12T11:08:49;97444.28;;;25.79;71.28
64141;BME280;50436;50.618;7.932;2022-07-12T11:11:15;97436.31;;;26.21;69.77
64141;BME280;50436;50.618;7.932;2022-07-12T11:13:41;97440.97;;;26.47;68.63
64141;BME280;50436;50.618;7.932;2022-07-12T11:16:06;97437.13;;;26.30;73.53
64141;BME280;50436;50.618;7.932;2022-07-12T11:18:33;97440.53;;;26.19;73.59
64141;BME280;50436;50.618;7.932;2022-07-12T11:21:00;97436.25;;;26.56;65.60
64141;BME280;50436;50.618;7.932;2022-07-12T11:23:27;97432.22;;;26.91;65.30
64141;BME280;50436;50.618;7.932;2022-07-12T11:25:54;97435.09;;;27.75;57.71
64141;BME280;50436;50.618;7.932;2022-07-12T11:28:20;97433.34;;;28.24;50.87
64141;BME280;50436;50.618;7.932;2022-07-12T11:30:53;97432.00;;;29.00;45.62
64141;BME280;50436;50.618;7.932;2022-07-12T11:33:24;97427.13;;;30.58;42.40
64141;BME280;50436;50.618;7.932;2022-07-12T11:35:51;97412.59;;;32.17;34.20
64141;BME280;50436;50.618;7.932;2022-07-12T11:38:24;97416.75;;;33.22;33.93
64141;BME280;50436;50.618;7.932;2022-07-12T11:41:00;97407.53;;;35.31;29.37
64141;BME280;50436;50.618;7.932;2022-07-12T11:43:27;97409.03;;;35.87;28.52
64141;BME280;50436;50.618;7.932;2022-07-12T11:45:54;97406.50;;;37.01;26.05
64141;BME280;50436;50.618;7.932;2022-07-12T11:48:21;97409.75;;;38.19;25.25
64141;BME280;50436;50.618;7.932;2022-07-12T11:50:49;97403.63;;;37.61;24.53
64141;BME280;50436;50.618;7.932;2022-07-12T11:53:25;97407.09;;;38.64;24.20
64141;BME280;50436;50.618;7.932;2022-07-12T11:55:53;97409.50;;;37.88;24.54
64141;BME280;50436;50.618;7.932;2022-07-12T11:58:25;97405.69;;;39.38;23.17
64141;BME280;50436;50.618;7.932;2022-07-12T12:00:51;97396.72;;;40.49;21.93
64141;BME280;50436;50.618;7.932;2022-07-12T12:03:18;97396.81;;;40.42;22.84
64141;BME280;50436;50.618;7.932;2022-07-12T12:05:49;97388.19;;;40.56;21.19
64141;BME280;50436;50.618;7.932;2022-07-12T12:08:15;97393.59;;;40.13;22.05
64141;BME280;50436;50.618;7.932;2022-07-12T12:10:54;97406.28;;;41.49;21.46
64141;BME280;50436;50.618;7.932;2022-07-12T12:13:21;97402.34;;;40.73;21.47
64141;BME280;50436;50.618;7.932;2022-07-12T12:15:54;97405.66;;;42.53;17.95
64141;BME280;50436;50.618;7.932;2022-07-12T12:18:39;97398.50;;;40.05;20.34
64141;BME280;50436;50.618;7.932;2022-07-12T12:21:06;97394.88;;;39.74;20.76
64141;BME280;50436;50.618;7.932;2022-07-12T12:23:33;97398.13;;;39.73;20.75
64141;BME280;50436;50.618;7.932;2022-07-12T12:28:52;97386.75;;;40.18;20.53
64141;BME280;50436;50.618;7.932;2022-07-12T12:31:19;97387.34;;;39.30;21.32
64141;BME280;50436;50.618;7.932;2022-07-12T12:33:46;97390.47;;;39.39;20.56
64141;BME280;50436;50.618;7.932;2022-07-12T12:36:17;97381.31;;;41.74;20.61
64141;BME280;50436;50.618;7.932;2022-07-12T12:38:43;97374.94;;;42.95;19.78
64141;BME280;50436;50.618;7.932;2022-07-12T12:41:09;97368.84;;;44.00;18.23
64141;BME280;50436;50.618;7.932;2022-07-12T12:43:35;97370.41;;;44.90;17.61
64141;BME280;50436;50.618;7.932;2022-07-12T12:46:01;97371.81;;;45.20;17.11
64141;BME280;50436;50.618;7.932;2022-07-12T12:48:28;97376.16;;;45.47;16.81
64141;BME280;50436;50.618;7.932;2022-07-12T12:51:02;97374.06;;;44.78;16.76
64141;BME280;50436;50.618;7.932;2022-07-12T12:53:28;97376.72;;;43.51;17.87
64141;BME280;50436;50.618;7.932;2022-07-12T12:55:55;97369.59;;;43.88;18.42
64141;BME280;50436;50.618;7.932;2022-07-12T12:58:22;97365.59;;;44.65;17.87
64141;BME280;50436;50.618;7.932;2022-07-12T13:00:50;97367.16;;;43.61;17.28
64141;BME280;50436;50.618;7.932;2022-07-12T13:03:18;97367.38;;;42.92;18.27
64141;BME280;50436;50.618;7.932;2022-07-12T13:05:44;97358.72;;;44.28;17.11
64141;BME280;50436;50.618;7.932;2022-07-12T13:08:12;97356.47;;;44.23;16.54
64141;BME280;50436;50.618;7.932;2022-07-12T13:10:39;97354.53;;;44.07;17.87
64141;BME280;50436;50.618;7.932;2022-07-12T13:13:05;97362.06;;;45.34;17.09